Aviation Digital Data Service (ADDS)

Output produced by METARs form (0006 UTC 29 May 2015)
found at http://aviationweather.gov/adds/metars/
 
KBPT 282323Z 2900/2924 16006KT P6SM FEW025 SCT250 
     FM290900 15005KT P6SM BKN020 
     TEMPO 2910/2914 4SM BR BKN015 
     FM291400 16008KT P6SM VCSH BKN035 
     FM291800 18010KT P6SM VCTS BKN040CB